createdAt,value
2022-10-11T00:01:04.718Z,98147.28
2022-10-11T00:03:33.170Z,98154.06
2022-10-11T00:06:05.624Z,98153.59
2022-10-11T00:08:34.629Z,98153.59
2022-10-11T00:11:06.104Z,98158.31
2022-10-11T00:13:34.810Z,98149.97
2022-10-11T00:16:08.977Z,98144.31
2022-10-11T00:18:37.870Z,98145.53
2022-10-11T00:21:09.738Z,98153.81
2022-10-11T00:23:38.331Z,98161.56
2022-10-11T00:26:09.615Z,98167.66
2022-10-11T00:28:38.743Z,98161.91
2022-10-11T00:31:08.872Z,98156.72
2022-10-11T00:33:37.530Z,98162.31
2022-10-11T00:36:09.479Z,98162.84
2022-10-11T00:38:38.297Z,98156.38
2022-10-11T00:41:07.058Z,98161.59
2022-10-11T00:43:35.691Z,98161.78
2022-10-11T00:46:23.660Z,98158.78
2022-10-11T00:48:57.332Z,98160.16
2022-10-11T00:51:37.085Z,98157.38
2022-10-11T00:54:07.256Z,98160.72
2022-10-11T00:56:39.090Z,98157.03
2022-10-11T00:59:13.191Z,98156.22
2022-10-11T01:01:41.931Z,98161.41
2022-10-11T01:04:12.416Z,98152.16
2022-10-11T01:06:42.748Z,98154.16
2022-10-11T01:09:11.930Z,98160.34
2022-10-11T01:11:42.301Z,98153.69
2022-10-11T01:14:30.416Z,98163.19
2022-10-11T01:17:01.775Z,98149.00
2022-10-11T01:19:55.943Z,98152.19
2022-10-11T01:22:48.516Z,98151.25
2022-10-11T01:25:28.068Z,98152.00
2022-10-11T01:28:10.187Z,98161.50
2022-10-11T01:30:40.903Z,98158.84
2022-10-11T01:33:23.719Z,98159.66
2022-10-11T01:36:03.532Z,98166.53
2022-10-11T01:38:38.129Z,98164.84
2022-10-11T01:41:10.476Z,98162.84
2022-10-11T01:43:40.753Z,98161.00
2022-10-11T01:46:12.001Z,98163.66
2022-10-11T01:48:51.169Z,98161.06
2022-10-11T01:51:23.049Z,98163.66
2022-10-11T01:54:06.052Z,98165.78
2022-10-11T01:56:53.091Z,98163.00
2022-10-11T01:59:36.413Z,98166.25
2022-10-11T02:02:16.748Z,98165.34
2022-10-11T02:04:50.806Z,98168.94
2022-10-11T02:07:23.759Z,98167.09
2022-10-11T02:09:59.419Z,98170.28
2022-10-11T02:12:34.781Z,98176.19
2022-10-11T02:15:08.926Z,98177.00
2022-10-11T02:17:44.501Z,98170.00
2022-10-11T02:20:17.292Z,98170.34
2022-10-11T02:22:50.641Z,98172.78
2022-10-11T02:25:24.091Z,98172.69
2022-10-11T02:27:55.921Z,98178.50
2022-10-11T02:30:24.680Z,98186.16
2022-10-11T02:32:57.118Z,98187.88
2022-10-11T02:35:30.435Z,98184.41
2022-10-11T02:38:05.472Z,98184.44
2022-10-11T02:40:37.284Z,98175.78
2022-10-11T02:43:11.961Z,98178.38
2022-10-11T02:45:44.311Z,98178.50
2022-10-11T02:48:14.421Z,98174.38
2022-10-11T02:50:43.476Z,98171.84
2022-10-11T02:53:12.021Z,98171.09
2022-10-11T02:55:40.444Z,98174.63
2022-10-11T02:58:08.977Z,98174.53
2022-10-11T03:00:37.436Z,98172.03
2022-10-11T03:03:06.011Z,98183.97
2022-10-11T03:05:40.515Z,98185.72
2022-10-11T03:08:09.921Z,98191.56
2022-10-11T03:10:39.718Z,98194.88
2022-10-11T03:13:08.506Z,98192.41
2022-10-11T03:15:37.039Z,98192.31
2022-10-11T03:18:05.550Z,98196.00
2022-10-11T03:20:35.371Z,98199.56
2022-10-11T03:23:04.001Z,98205.69
2022-10-11T03:25:32.454Z,98206.34
2022-10-11T03:28:00.923Z,98208.03
2022-10-11T03:30:29.960Z,98215.88
2022-10-11T03:32:58.846Z,98212.38
2022-10-11T03:35:27.256Z,98213.13
2022-10-11T03:37:57.103Z,98213.03
2022-10-11T03:40:25.745Z,98213.66
2022-10-11T03:42:54.961Z,98216.38
2022-10-11T03:45:23.552Z,98220.66
2022-10-11T03:47:52.009Z,98217.16
2022-10-11T03:50:20.442Z,98209.94
2022-10-11T03:52:48.875Z,98221.78
2022-10-11T03:55:18.825Z,98223.72
2022-10-11T03:57:47.269Z,98222.63
2022-10-11T04:00:16.094Z,98228.56
2022-10-11T04:02:44.481Z,98221.47
2022-10-11T04:05:13.286Z,98226.66
2022-10-11T04:07:41.953Z,98229.09
2022-10-11T04:10:10.680Z,98234.03
2022-10-11T04:12:40.772Z,98233.53
2022-10-11T04:15:12.509Z,98226.72
2022-10-11T04:17:41.398Z,98228.44
2022-10-11T04:20:10.902Z,98231.03
2022-10-11T04:22:39.453Z,98226.66
2022-10-11T04:25:09.142Z,98225.66
2022-10-11T04:27:37.485Z,98234.38
2022-10-11T04:30:09.813Z,98231.50
2022-10-11T04:32:38.289Z,98243.34
2022-10-11T04:35:07.333Z,98236.44
2022-10-11T04:37:35.887Z,98242.50
2022-10-11T04:40:05.285Z,98239.03
2022-10-11T04:42:35.041Z,98232.44
2022-10-11T04:45:03.588Z,98233.34
2022-10-11T04:47:33.378Z,98239.38
2022-10-11T04:50:01.864Z,98229.56
2022-10-11T04:52:30.322Z,98239.88
2022-10-11T04:54:58.884Z,98238.84
2022-10-11T04:57:27.333Z,98239.59
2022-10-11T04:59:55.772Z,98241.50
2022-10-11T05:02:24.377Z,98249.13
2022-10-11T05:04:54.791Z,98253.28
2022-10-11T05:07:23.220Z,98246.59
2022-10-11T05:09:51.637Z,98256.06
2022-10-11T05:12:20.136Z,98250.69
2022-10-11T05:14:48.574Z,98258.31
2022-10-11T05:17:17.005Z,98254.88
2022-10-11T05:19:45.441Z,98258.31
2022-10-11T05:22:15.227Z,98261.56
2022-10-11T05:24:43.500Z,98258.88
2022-10-11T05:27:11.972Z,98260.66
2022-10-11T05:29:40.421Z,98259.63
2022-10-11T05:32:08.943Z,98268.13
2022-10-11T05:34:37.381Z,98267.22
2022-10-11T05:37:05.831Z,98265.56
2022-10-11T05:39:35.752Z,98267.22
2022-10-11T05:42:08.897Z,98269.72
2022-10-11T05:44:38.483Z,98272.22
2022-10-11T05:47:06.981Z,98277.41
2022-10-11T05:49:35.421Z,98279.91
2022-10-11T05:52:03.820Z,98272.13
2022-10-11T05:54:32.608Z,98273.72
2022-10-11T05:57:02.529Z,98286.97
2022-10-11T05:59:31.101Z,98287.63
2022-10-11T06:01:59.551Z,98290.03
2022-10-11T06:04:28.033Z,98289.19
2022-10-11T06:06:56.517Z,98290.03
2022-10-11T06:09:24.986Z,98295.97
2022-10-11T06:11:53.426Z,98299.38
2022-10-11T06:14:23.325Z,98301.78
2022-10-11T06:16:51.768Z,98303.91
2022-10-11T06:19:20.241Z,98303.16
2022-10-11T06:21:48.684Z,98304.06
2022-10-11T06:24:17.166Z,98307.91
2022-10-11T06:26:45.664Z,98308.47
2022-10-11T06:29:14.108Z,98309.50
2022-10-11T06:31:44.210Z,98314.84
2022-10-11T06:34:12.648Z,98314.00
2022-10-11T06:36:41.092Z,98315.78
2022-10-11T06:39:09.555Z,98317.28
2022-10-11T06:41:37.984Z,98318.69
2022-10-11T06:44:09.697Z,98327.22
2022-10-11T06:46:42.212Z,98325.53
2022-10-11T06:49:11.994Z,98322.03
2022-10-11T06:51:40.255Z,98328.72
2022-10-11T06:54:08.826Z,98332.22
2022-10-11T06:56:37.537Z,98327.03
2022-10-11T06:59:06.026Z,98330.28
2022-10-11T07:01:35.033Z,98338.72
2022-10-11T07:04:03.667Z,98342.06
2022-10-11T07:06:39.925Z,98343.91
2022-10-11T07:09:08.743Z,98348.06
2022-10-11T07:11:37.361Z,98345.00
2022-10-11T07:14:07.824Z,98345.56
2022-10-11T07:16:37.360Z,98347.06
2022-10-11T07:19:07.386Z,98345.72
2022-10-11T07:21:37.542Z,98350.72
2022-10-11T07:24:06.894Z,98359.19
2022-10-11T07:26:38.487Z,98355.28
2022-10-11T07:29:09.748Z,98353.53
2022-10-11T07:31:40.845Z,98359.19
2022-10-11T07:34:09.685Z,98366.47
2022-10-11T07:36:39.577Z,98370.63
2022-10-11T07:39:09.729Z,98367.94
2022-10-11T07:41:44.645Z,98375.44
2022-10-11T07:44:14.645Z,98373.03
2022-10-11T07:46:43.138Z,98372.03
2022-10-11T07:49:11.705Z,98375.91
2022-10-11T07:51:41.555Z,98377.94
2022-10-11T07:54:10.082Z,98372.84
2022-10-11T07:56:39.901Z,98376.47
2022-10-11T07:59:08.549Z,98380.56
2022-10-11T08:01:37.124Z,98373.00
2022-10-11T08:04:06.085Z,98374.22
2022-10-11T08:06:36.465Z,98373.38
2022-10-11T08:09:06.550Z,98373.88
2022-10-11T08:11:37.134Z,98375.25
2022-10-11T08:14:09.095Z,98382.59
2022-10-11T08:16:38.102Z,98381.25
2022-10-11T08:19:06.669Z,98377.63
2022-10-11T08:21:35.313Z,98388.75
2022-10-11T08:24:06.470Z,98378.72
2022-10-11T08:26:35.700Z,98376.75
2022-10-11T08:29:05.051Z,98381.84
2022-10-11T08:31:34.702Z,98379.13
2022-10-11T08:34:03.004Z,98392.88
2022-10-11T08:36:31.280Z,98389.47
2022-10-11T08:38:59.532Z,98398.31
2022-10-11T08:41:31.031Z,98385.19
2022-10-11T08:44:13.033Z,98392.97
2022-10-11T08:46:46.535Z,98386.88
2022-10-11T08:49:16.925Z,98387.59
2022-10-11T08:51:48.822Z,98392.28
2022-10-11T08:54:22.167Z,98397.63
2022-10-11T08:56:52.465Z,98376.91
2022-10-11T08:59:30.083Z,98387.44
2022-10-11T09:02:04.948Z,98391.59
2022-10-11T09:04:33.452Z,98381.97
2022-10-11T09:07:08.309Z,98383.16
2022-10-11T09:09:56.490Z,98382.31
2022-10-11T09:12:33.481Z,98374.00
2022-10-11T09:15:19.067Z,98375.09
2022-10-11T09:18:04.298Z,98381.34
2022-10-11T09:20:44.353Z,98386.50
2022-10-11T09:23:26.157Z,98373.19
2022-10-11T09:25:59.534Z,98378.94
2022-10-11T09:28:44.252Z,98374.84
2022-10-11T09:31:12.830Z,98378.34
2022-10-11T09:33:44.930Z,98376.31
2022-10-11T09:36:20.676Z,98373.88
2022-10-11T09:38:51.848Z,98377.25
2022-10-11T09:41:27.947Z,98387.47
2022-10-11T09:43:57.831Z,98379.81
2022-10-11T09:46:38.370Z,98372.91
2022-10-11T09:49:11.573Z,98385.63
2022-10-11T09:51:44.485Z,98380.56
2022-10-11T09:54:12.949Z,98386.06
2022-10-11T09:56:43.939Z,98383.44
2022-10-11T09:59:27.733Z,98386.47
2022-10-11T10:02:22.614Z,98387.44
2022-10-11T10:05:03.267Z,98388.06
2022-10-11T10:07:33.322Z,98391.16
2022-10-11T10:10:27.442Z,98397.94
2022-10-11T10:12:58.815Z,98387.19
2022-10-11T10:15:31.015Z,98393.84
2022-10-11T10:17:59.921Z,98389.25
2022-10-11T10:20:31.638Z,98397.69
2022-10-11T10:23:03.721Z,98389.69
2022-10-11T10:25:39.603Z,98391.69
2022-10-11T10:28:20.691Z,98394.88
2022-10-11T10:30:55.575Z,98393.66
2022-10-11T10:33:25.549Z,98397.28
2022-10-11T10:35:57.252Z,98396.44
2022-10-11T10:38:30.197Z,98397.91
2022-10-11T10:41:03.180Z,98399.53
2022-10-11T10:43:36.287Z,98396.53
2022-10-11T10:46:26.486Z,98401.56
2022-10-11T10:49:28.790Z,98407.75
2022-10-11T10:52:03.038Z,98399.69
2022-10-11T10:54:41.540Z,98402.50
2022-10-11T10:57:19.076Z,98399.81
2022-10-11T11:00:00.068Z,98399.19
2022-10-11T11:02:40.682Z,98408.75
2022-10-11T11:05:21.312Z,98396.25
2022-10-11T11:07:55.366Z,98396.47
2022-10-11T11:10:31.136Z,98395.88
2022-10-11T11:13:07.321Z,98398.72
2022-10-11T11:15:43.096Z,98401.09
2022-10-11T11:18:20.286Z,98399.00
2022-10-11T11:21:03.154Z,98398.81
2022-10-11T11:23:39.865Z,98392.34
2022-10-11T11:26:16.168Z,98389.09
2022-10-11T11:29:07.591Z,98385.81
2022-10-11T11:31:51.387Z,98388.78
2022-10-11T11:34:24.871Z,98387.09
2022-10-11T11:36:57.339Z,98388.94
2022-10-11T11:39:29.707Z,98381.47
2022-10-11T11:42:02.347Z,98382.94
2022-10-11T11:44:32.857Z,98375.31
2022-10-11T11:47:04.407Z,98369.69
2022-10-11T11:49:38.039Z,98371.91
2022-10-11T11:52:08.560Z,98375.00
2022-10-11T11:54:45.933Z,98373.44
2022-10-11T11:57:31.681Z,98367.13
2022-10-11T12:00:05.391Z,98367.09
2022-10-11T12:02:45.993Z,98366.38
2022-10-11T12:05:18.936Z,98372.09
2022-10-11T12:07:51.367Z,98368.03
2022-10-11T12:10:30.110Z,98369.59
2022-10-11T12:13:20.325Z,98368.41
2022-10-11T12:16:10.765Z,98374.25
2022-10-11T12:18:50.732Z,98376.78
2022-10-11T12:21:25.860Z,98367.94
2022-10-11T12:23:56.522Z,98361.88
2022-10-11T12:26:40.626Z,98360.44
2022-10-11T12:29:47.262Z,98362.63
2022-10-11T12:32:50.110Z,98358.78
2022-10-11T12:36:04.025Z,98368.72
2022-10-11T12:38:39.694Z,98364.00
2022-10-11T12:41:37.729Z,98365.56
2022-10-11T12:44:20.607Z,98358.56
2022-10-11T12:47:39.081Z,98354.00
2022-10-11T12:50:18.921Z,98348.38
2022-10-11T12:52:57.111Z,98347.53
2022-10-11T12:55:38.281Z,98354.91
2022-10-11T12:58:28.855Z,98351.97
2022-10-11T13:01:13.771Z,98346.50
2022-10-11T13:03:44.192Z,98347.94
2022-10-11T13:06:17.813Z,98345.47
2022-10-11T13:08:50.801Z,98346.41
2022-10-11T13:11:24.398Z,98350.44
2022-10-11T13:13:56.240Z,98343.44
2022-10-11T13:16:26.860Z,98344.81
2022-10-11T13:18:58.769Z,98351.09
2022-10-11T13:21:31.213Z,98341.50
2022-10-11T13:24:01.755Z,98343.03
2022-10-11T13:26:32.982Z,98347.22
2022-10-11T13:29:01.542Z,98339.81
2022-10-11T13:31:30.011Z,98339.41
2022-10-11T13:34:00.039Z,98338.88
2022-10-11T13:36:28.752Z,98337.31
2022-10-11T13:38:59.999Z,98341.06
2022-10-11T13:41:31.711Z,98338.38
2022-10-11T13:44:01.204Z,98338.66
2022-10-11T13:46:32.170Z,98339.19
2022-10-11T13:49:02.557Z,98335.94
2022-10-11T13:51:34.408Z,98335.69
2022-10-11T13:54:08.529Z,98336.31
2022-10-11T13:56:46.934Z,98334.19
2022-10-11T13:59:20.241Z,98330.97
2022-10-11T14:01:49.805Z,98333.16
2022-10-11T14:04:18.251Z,98327.94
2022-10-11T14:06:49.525Z,98329.81
2022-10-11T14:09:24.286Z,98329.81
2022-10-11T14:11:54.971Z,98334.69
2022-10-11T14:14:39.730Z,98331.69
2022-10-11T14:17:14.997Z,98336.47
2022-10-11T14:19:44.028Z,98328.75
2022-10-11T14:22:15.832Z,98335.72
2022-10-11T14:24:47.312Z,98331.47
2022-10-11T14:27:21.061Z,98337.16
2022-10-11T14:30:20.158Z,98345.81
2022-10-11T14:32:39.759Z,98340.31
2022-10-11T14:35:16.477Z,98351.97
2022-10-11T14:37:45.110Z,98343.31
2022-10-11T14:40:16.413Z,98342.34
2022-10-11T14:42:46.205Z,98342.75
2022-10-11T14:45:14.648Z,98342.03
2022-10-11T14:47:43.387Z,98339.44
2022-10-11T14:50:25.545Z,98331.63
2022-10-11T14:52:54.027Z,98342.03
2022-10-11T14:55:22.896Z,98339.63
2022-10-11T14:57:52.947Z,98348.28
2022-10-11T15:00:24.055Z,98346.66
2022-10-11T15:02:53.675Z,98345.56
2022-10-11T15:05:22.869Z,98348.63
2022-10-11T15:07:52.153Z,98341.34
2022-10-11T15:10:23.338Z,98339.63
2022-10-11T15:12:55.097Z,98336.25
2022-10-11T15:15:30.452Z,98339.19
2022-10-11T15:18:01.784Z,98343.19
2022-10-11T15:20:32.977Z,98328.72
2022-10-11T15:23:02.095Z,98324.50
2022-10-11T15:25:31.030Z,98334.13
2022-10-11T15:28:01.258Z,98334.41
2022-10-11T15:30:33.954Z,98331.53
2022-10-11T15:33:06.109Z,98327.69
2022-10-11T15:35:35.469Z,98328.44
2022-10-11T15:38:04.321Z,98333.94
2022-10-11T15:40:35.340Z,98331.53
2022-10-11T15:43:05.728Z,98317.09
2022-10-11T15:45:35.051Z,98326.47
2022-10-11T15:48:04.184Z,98319.56
2022-10-11T15:50:36.627Z,98333.03
2022-10-11T15:53:07.326Z,98320.53
2022-10-11T15:55:39.533Z,98326.69
2022-10-11T15:58:14.580Z,98318.53
2022-10-11T16:00:43.626Z,98317.41
2022-10-11T16:03:13.547Z,98312.41
2022-10-11T16:05:42.630Z,98312.91
2022-10-11T16:08:11.415Z,98323.09
2022-10-11T16:10:41.129Z,98316.41
2022-10-11T16:13:11.048Z,98317.16
2022-10-11T16:15:42.057Z,98314.75
2022-10-11T16:18:13.386Z,98320.25
2022-10-11T16:20:43.207Z,98322.47
2022-10-11T16:23:13.403Z,98317.22
2022-10-11T16:25:42.421Z,98321.41
2022-10-11T16:28:12.714Z,98318.50
2022-10-11T16:30:43.759Z,98315.91
2022-10-11T16:33:12.240Z,98318.53
2022-10-11T16:35:42.373Z,98324.84
2022-10-11T16:38:10.929Z,98324.06
2022-10-11T16:40:40.107Z,98327.03
2022-10-11T16:43:08.772Z,98333.06
2022-10-11T16:45:38.767Z,98335.84
2022-10-11T16:48:07.237Z,98331.00
2022-10-11T16:50:39.488Z,98332.59
2022-10-11T16:53:08.336Z,98334.66
2022-10-11T16:55:40.136Z,98339.00
2022-10-11T16:58:09.753Z,98340.66
2022-10-11T17:00:43.161Z,98338.25
2022-10-11T17:03:11.976Z,98338.72
2022-10-11T17:05:40.466Z,98343.94
2022-10-11T17:08:08.885Z,98338.72
2022-10-11T17:10:44.192Z,98342.19
2022-10-11T17:13:12.904Z,98339.53
2022-10-11T17:15:42.715Z,98349.91
2022-10-11T17:18:11.179Z,98347.16
2022-10-11T17:20:39.860Z,98348.00
2022-10-11T17:23:09.110Z,98341.22
2022-10-11T17:25:42.319Z,98342.97
2022-10-11T17:28:12.328Z,98341.09
2022-10-11T17:30:42.196Z,98338.72
2022-10-11T17:33:10.642Z,98353.50
2022-10-11T17:35:39.108Z,98350.06
2022-10-11T17:38:07.552Z,98344.22
2022-10-11T17:40:36.002Z,98348.19
2022-10-11T17:43:04.583Z,98350.97
2022-10-11T17:45:33.085Z,98352.91
2022-10-11T17:48:04.013Z,98345.31
2022-10-11T17:50:33.060Z,98346.66
2022-10-11T17:53:01.508Z,98349.72
2022-10-11T17:55:29.973Z,98347.81
2022-10-11T17:57:58.392Z,98350.84
2022-10-11T18:00:26.846Z,98350.94
2022-10-11T18:02:57.352Z,98351.94
2022-10-11T18:05:27.315Z,98348.59
2022-10-11T18:07:56.449Z,98346.00
2022-10-11T18:10:24.971Z,98350.09
2022-10-11T18:12:54.227Z,98348.59
2022-10-11T18:15:22.712Z,98348.69
2022-10-11T18:17:51.507Z,98352.50
2022-10-11T18:20:20.088Z,98353.63
2022-10-11T18:22:50.325Z,98345.47
2022-10-11T18:25:18.771Z,98350.72
2022-10-11T18:27:47.246Z,98352.66
2022-10-11T18:30:15.844Z,98350.16
2022-10-11T18:32:44.635Z,98350.81
2022-10-11T18:35:13.104Z,98355.50
2022-10-11T18:37:41.524Z,98351.84
2022-10-11T18:40:11.771Z,98350.44
2022-10-11T18:42:40.202Z,98357.78
2022-10-11T18:45:10.335Z,98355.09
2022-10-11T18:47:38.780Z,98355.09
2022-10-11T18:50:08.395Z,98350.31
2022-10-11T18:52:39.184Z,98347.72
2022-10-11T18:55:12.387Z,98352.47
2022-10-11T18:57:40.921Z,98349.31
2022-10-11T19:00:23.361Z,98343.28
2022-10-11T19:02:59.461Z,98333.03
2022-10-11T19:05:28.009Z,98351.06
2022-10-11T19:07:56.485Z,98345.41
2022-10-11T19:10:26.277Z,98340.97
2022-10-11T19:12:54.725Z,98343.91
2022-10-11T19:15:26.517Z,98336.78
2022-10-11T19:17:57.263Z,98338.72
2022-10-11T19:20:25.780Z,98340.38
2022-10-11T19:22:54.229Z,98336.88
2022-10-11T19:25:23.734Z,98335.06
2022-10-11T19:27:53.495Z,98335.53
2022-10-11T19:30:24.532Z,98342.41
2022-10-11T19:32:52.941Z,98333.94
2022-10-11T19:35:21.381Z,98339.13
2022-10-11T19:37:49.858Z,98338.88
2022-10-11T19:40:18.330Z,98341.69
2022-10-11T19:42:46.957Z,98347.19
2022-10-11T19:45:17.035Z,98347.28
2022-10-11T19:47:45.535Z,98348.88
2022-10-11T19:50:13.958Z,98349.97
2022-10-11T19:52:44.907Z,98341.59
2022-10-11T19:55:13.538Z,98347.84
2022-10-11T19:57:41.927Z,98352.53
2022-10-11T20:00:11.346Z,98345.84
2022-10-11T20:02:41.088Z,98353.00
2022-10-11T20:05:09.446Z,98346.06
2022-10-11T20:07:37.850Z,98349.63
2022-10-11T20:10:06.753Z,98356.59
2022-10-11T20:12:35.497Z,98355.00
2022-10-11T20:15:04.485Z,98362.84
2022-10-11T20:17:46.797Z,98363.06
2022-10-11T20:20:17.582Z,98360.41
2022-10-11T20:22:46.358Z,98358.78
2022-10-11T20:25:14.837Z,98360.56
2022-10-11T20:27:43.632Z,98367.31
2022-10-11T20:30:14.650Z,98372.56
2022-10-11T20:32:43.305Z,98360.34
2022-10-11T20:35:11.938Z,98369.53
2022-10-11T20:37:41.826Z,98366.06
2022-10-11T20:40:13.816Z,98370.25
2022-10-11T20:42:43.270Z,98364.06
2022-10-11T20:45:11.967Z,98357.81
2022-10-11T20:47:40.458Z,98360.31
2022-10-11T20:50:09.604Z,98359.31
2022-10-11T20:52:38.402Z,98359.31
2022-10-11T20:55:09.240Z,98356.59
2022-10-11T20:57:37.680Z,98371.28
2022-10-11T21:00:07.108Z,98366.09
2022-10-11T21:02:35.638Z,98363.66
2022-10-11T21:05:04.129Z,98366.25
2022-10-11T21:07:32.748Z,98369.53
2022-10-11T21:10:01.780Z,98369.59
2022-10-11T21:12:31.823Z,98361.91
2022-10-11T21:15:00.504Z,98361.91
2022-10-11T21:17:28.887Z,98354.75
2022-10-11T21:19:58.610Z,98360.00
2022-10-11T21:22:26.858Z,98355.84
2022-10-11T21:24:55.265Z,98352.50
2022-10-11T21:27:24.669Z,98360.16
2022-10-11T21:29:54.426Z,98356.81
2022-10-11T21:32:22.666Z,98363.66
2022-10-11T21:34:51.233Z,98351.56
2022-10-11T21:37:19.738Z,98355.06
2022-10-11T21:39:48.163Z,98356.81
2022-10-11T21:42:16.601Z,98352.53
2022-10-11T21:44:45.067Z,98344.13
2022-10-11T21:47:14.868Z,98352.81
2022-10-11T21:49:43.282Z,98351.88
2022-10-11T21:52:11.850Z,98349.19
2022-10-11T21:54:40.278Z,98348.44
2022-10-11T21:57:08.664Z,98340.84
2022-10-11T21:59:37.081Z,98346.13
2022-10-11T22:02:05.716Z,98342.69
2022-10-11T22:04:35.660Z,98344.38
2022-10-11T22:07:04.135Z,98350.53
2022-10-11T22:09:35.012Z,98352.13
2022-10-11T22:12:03.896Z,98352.06
2022-10-11T22:14:32.576Z,98345.84
2022-10-11T22:17:00.989Z,98349.38
2022-10-11T22:19:29.393Z,98350.97
2022-10-11T22:21:59.127Z,98342.19
2022-10-11T22:24:28.920Z,98349.28
2022-10-11T22:26:57.163Z,98344.19
2022-10-11T22:29:27.638Z,98347.63
2022-10-11T22:31:57.898Z,98338.09
2022-10-11T22:34:26.320Z,98340.00
2022-10-11T22:36:54.719Z,98331.44
2022-10-11T22:39:24.459Z,98330.59
2022-10-11T22:41:53.964Z,98325.50
2022-10-11T22:44:22.698Z,98322.00
2022-10-11T22:46:51.091Z,98325.31
2022-10-11T22:49:19.483Z,98318.50
2022-10-11T22:51:49.340Z,98318.41
2022-10-11T22:54:17.762Z,98318.50
2022-10-11T22:56:47.565Z,98324.50
2022-10-11T22:59:16.046Z,98322.91
2022-10-11T23:01:44.473Z,98321.91
2022-10-11T23:04:12.985Z,98326.09
2022-10-11T23:06:41.403Z,98325.31
2022-10-11T23:09:10.061Z,98330.59
2022-10-11T23:11:38.453Z,98331.44
2022-10-11T23:14:08.412Z,98316.06
2022-10-11T23:16:36.809Z,98320.06
2022-10-11T23:19:05.213Z,98318.31
2022-10-11T23:21:33.630Z,98322.81
2022-10-11T23:24:02.040Z,98323.72
2022-10-11T23:26:30.420Z,98321.13
2022-10-11T23:28:58.828Z,98327.25
2022-10-11T23:31:28.664Z,98316.06
2022-10-11T23:33:57.109Z,98328.00
2022-10-11T23:36:26.982Z,98318.41
2022-10-11T23:38:57.188Z,98319.09
2022-10-11T23:41:27.682Z,98326.09
2022-10-11T23:43:56.533Z,98321.09
2022-10-11T23:46:24.985Z,98319.41
2022-10-11T23:48:54.748Z,98318.81
2022-10-11T23:51:22.976Z,98317.22
2022-10-11T23:53:51.402Z,98316.28
2022-10-11T23:56:19.836Z,98323.28
2022-10-11T23:58:48.284Z,98324.66
